createdAt,value
2022-08-12T00:00:53.186Z,1.30
2022-08-12T00:03:38.555Z,1.50
2022-08-12T00:06:24.181Z,1.33
2022-08-12T00:09:09.475Z,1.20
2022-08-12T00:11:54.832Z,1.37
2022-08-12T00:14:41.410Z,1.17
2022-08-12T00:17:26.324Z,1.30
2022-08-12T00:20:11.967Z,1.27
2022-08-12T00:22:59.804Z,1.53
2022-08-12T00:26:20.730Z,1.30
2022-08-12T00:28:59.065Z,1.93
2022-08-12T00:31:45.546Z,1.20
2022-08-12T00:34:31.505Z,1.43
2022-08-12T00:37:17.322Z,1.20
2022-08-12T00:40:04.621Z,1.53
2022-08-12T00:42:38.027Z,1.30
2022-08-12T00:45:05.911Z,1.40
2022-08-12T00:47:35.045Z,1.30
2022-08-12T00:50:02.630Z,1.30
2022-08-12T00:52:30.010Z,1.33
2022-08-12T00:54:58.546Z,1.20
2022-08-12T00:57:27.329Z,1.40
2022-08-12T00:59:56.160Z,1.60
2022-08-12T01:02:24.728Z,1.50
2022-08-12T01:05:15.344Z,1.40
2022-08-12T01:08:00.953Z,1.30
2022-08-12T01:10:48.431Z,1.30
2022-08-12T01:13:19.905Z,1.50
2022-08-12T01:15:50.263Z,1.30
2022-08-12T01:18:18.116Z,1.30
2022-08-12T01:20:54.649Z,1.53
2022-08-12T01:23:40.787Z,1.40
2022-08-12T01:26:10.932Z,1.67
2022-08-12T01:28:39.654Z,1.60
2022-08-12T01:31:07.242Z,1.20
2022-08-12T01:33:38.163Z,1.37
2022-08-12T01:36:10.135Z,1.57
2022-08-12T01:38:38.043Z,1.50
2022-08-12T01:41:06.161Z,1.70
2022-08-12T01:43:35.225Z,1.37
2022-08-12T01:46:07.265Z,1.40
2022-08-12T01:48:40.700Z,1.70
2022-08-12T01:51:40.766Z,1.37
2022-08-12T01:54:45.127Z,1.40
2022-08-12T01:57:59.734Z,1.17
2022-08-12T02:00:12.182Z,1.23
2022-08-12T02:02:46.188Z,1.33
2022-08-12T02:05:35.386Z,1.47
2022-08-12T02:08:32.851Z,1.37
2022-08-12T02:11:18.176Z,1.50
2022-08-12T02:14:02.750Z,1.37
2022-08-12T02:16:45.306Z,1.40
2022-08-12T02:19:22.864Z,1.53
2022-08-12T02:21:56.197Z,1.40
2022-08-12T02:24:24.757Z,1.40
2022-08-12T02:26:57.512Z,1.30
2022-08-12T02:29:25.330Z,1.60
2022-08-12T02:31:54.739Z,1.67
2022-08-12T02:34:23.018Z,1.50
2022-08-12T02:36:51.728Z,1.50
2022-08-12T02:39:20.239Z,1.40
2022-08-12T02:41:48.214Z,1.77
2022-08-12T02:44:16.434Z,1.30
2022-08-12T02:46:50.199Z,1.50
2022-08-12T02:49:22.691Z,1.40
2022-08-12T02:51:50.557Z,1.40
2022-08-12T02:54:18.011Z,1.87
2022-08-12T02:56:50.134Z,1.57
2022-08-12T02:59:19.952Z,1.30
2022-08-12T03:01:48.643Z,1.63
2022-08-12T03:04:24.337Z,1.60
2022-08-12T03:06:56.432Z,1.60
2022-08-12T03:09:26.717Z,1.60
2022-08-12T03:12:04.749Z,1.57
2022-08-12T03:14:35.750Z,1.60
2022-08-12T03:17:09.565Z,1.37
2022-08-12T03:19:38.736Z,1.23
2022-08-12T03:22:26.942Z,1.50
2022-08-12T03:24:54.657Z,1.50
2022-08-12T03:27:24.618Z,1.80
2022-08-12T03:29:52.951Z,1.90
2022-08-12T03:32:35.185Z,2.30
2022-08-12T03:35:07.255Z,1.80
2022-08-12T03:37:35.503Z,1.70
2022-08-12T03:40:02.934Z,1.80
2022-08-12T03:42:33.282Z,1.80
2022-08-12T03:45:36.037Z,1.83
2022-08-12T03:48:36.470Z,1.60
2022-08-12T03:51:22.839Z,1.97
2022-08-12T03:54:11.104Z,1.93
2022-08-12T03:56:57.043Z,2.00
2022-08-12T03:59:42.194Z,1.70
2022-08-12T04:02:14.503Z,1.80
2022-08-12T04:04:45.178Z,1.80
2022-08-12T04:07:16.203Z,1.70
2022-08-12T04:09:45.008Z,1.90
2022-08-12T04:12:32.684Z,1.80
2022-08-12T04:15:01.266Z,1.80
2022-08-12T04:17:28.949Z,1.67
2022-08-12T04:19:57.289Z,1.60
2022-08-12T04:22:30.671Z,1.50
2022-08-12T04:25:01.022Z,1.80
2022-08-12T04:27:31.504Z,1.63
2022-08-12T04:30:29.621Z,1.70
2022-08-12T04:32:48.292Z,1.70
2022-08-12T04:35:16.806Z,1.90
2022-08-12T04:37:58.627Z,1.80
2022-08-12T04:40:29.707Z,1.70
2022-08-12T04:42:57.200Z,1.57
2022-08-12T04:45:24.893Z,1.57
2022-08-12T04:47:53.088Z,1.60
2022-08-12T04:50:35.296Z,1.70
2022-08-12T04:53:05.779Z,1.77
2022-08-12T04:55:34.545Z,1.80
2022-08-12T04:58:02.175Z,1.60
2022-08-12T05:00:29.742Z,1.70
2022-08-12T05:02:57.300Z,2.17
2022-08-12T05:05:24.782Z,1.93
2022-08-12T05:07:54.683Z,1.93
2022-08-12T05:10:33.990Z,1.50
2022-08-12T05:13:05.866Z,1.97
2022-08-12T05:15:34.781Z,1.70
2022-08-12T05:18:14.550Z,1.60
2022-08-12T05:20:48.327Z,1.80
2022-08-12T05:23:17.456Z,1.67
2022-08-12T05:25:47.716Z,2.63
2022-08-12T05:28:16.816Z,1.70
2022-08-12T05:30:44.935Z,2.13
2022-08-12T05:33:12.811Z,1.70
2022-08-12T05:35:43.049Z,1.77
2022-08-12T05:38:28.583Z,1.60
2022-08-12T05:40:57.457Z,1.90
2022-08-12T05:43:24.902Z,1.60
2022-08-12T05:45:52.582Z,1.90
2022-08-12T05:48:20.151Z,1.90
2022-08-12T05:50:47.703Z,1.90
2022-08-12T05:53:15.631Z,1.90
2022-08-12T05:55:43.467Z,1.83
2022-08-12T05:58:12.204Z,1.80
2022-08-12T06:00:39.644Z,1.50
2022-08-12T06:03:07.520Z,1.70
2022-08-12T06:05:51.848Z,1.60
2022-08-12T06:08:23.381Z,1.60
2022-08-12T06:10:50.988Z,1.67
2022-08-12T06:13:28.763Z,1.60
2022-08-12T06:16:08.283Z,1.40
2022-08-12T06:18:35.670Z,1.50
2022-08-12T06:21:03.105Z,1.43
2022-08-12T06:23:30.719Z,1.70
2022-08-12T06:25:58.806Z,1.50
2022-08-12T06:28:28.089Z,1.40
2022-08-12T06:31:24.398Z,1.40
2022-08-12T06:33:57.816Z,1.30
2022-08-12T06:36:32.661Z,1.20
2022-08-12T06:39:01.210Z,1.10
2022-08-12T06:42:05.008Z,1.33
2022-08-12T06:44:35.203Z,1.10
2022-08-12T06:47:02.625Z,1.23
2022-08-12T06:49:35.425Z,0.90
2022-08-12T06:52:04.393Z,1.17
2022-08-12T06:54:34.620Z,1.03
2022-08-12T06:57:04.660Z,0.90
2022-08-12T06:59:35.573Z,0.90
2022-08-12T07:02:04.468Z,1.10
2022-08-12T07:04:37.973Z,1.20
2022-08-12T07:07:07.263Z,1.10
2022-08-12T07:10:00.008Z,1.10
2022-08-12T07:12:22.657Z,1.00
2022-08-12T07:14:51.836Z,1.20
2022-08-12T07:17:20.900Z,1.10
2022-08-12T07:19:49.977Z,1.10
2022-08-12T07:22:17.777Z,1.00
2022-08-12T07:25:05.356Z,1.20
2022-08-12T07:27:37.911Z,1.03
2022-08-12T07:30:07.342Z,1.13
2022-08-12T07:32:36.286Z,0.87
2022-08-12T07:35:04.143Z,1.10
2022-08-12T07:37:33.527Z,0.97
2022-08-12T07:40:01.433Z,1.10
2022-08-12T07:42:29.830Z,0.80
2022-08-12T07:44:57.437Z,0.90
2022-08-12T07:47:25.158Z,1.10
2022-08-12T07:50:05.326Z,0.93
2022-08-12T07:52:34.263Z,1.10
2022-08-12T07:55:01.793Z,1.07
2022-08-12T07:57:29.198Z,1.10
2022-08-12T07:59:56.635Z,1.00
2022-08-12T08:02:26.675Z,1.00
2022-08-12T08:05:00.474Z,1.20
2022-08-12T08:07:30.810Z,1.40
2022-08-12T08:09:59.520Z,0.93
2022-08-12T08:12:45.487Z,1.10
2022-08-12T08:15:14.951Z,1.17
2022-08-12T08:17:54.463Z,1.20
2022-08-12T08:20:24.875Z,1.10
2022-08-12T08:22:52.420Z,1.00
2022-08-12T08:25:36.561Z,1.10
2022-08-12T08:28:06.762Z,1.17
2022-08-12T08:30:35.397Z,1.20
2022-08-12T08:33:02.824Z,1.00
2022-08-12T08:35:46.983Z,1.00
2022-08-12T08:38:17.657Z,0.97
2022-08-12T08:42:15.680Z,1.03
2022-08-12T08:44:05.810Z,1.00
2022-08-12T08:46:37.499Z,1.07
2022-08-12T08:49:05.716Z,1.17
2022-08-12T08:51:35.236Z,1.10
2022-08-12T08:54:02.927Z,1.20
2022-08-12T08:56:30.439Z,1.00
2022-08-12T08:58:58.523Z,1.10
2022-08-12T09:01:26.285Z,0.90
2022-08-12T09:05:08.964Z,0.87
2022-08-12T09:06:53.738Z,1.10
2022-08-12T09:09:21.777Z,1.03
2022-08-12T09:12:12.221Z,0.90
2022-08-12T09:14:47.050Z,1.00
2022-08-12T09:17:22.267Z,1.17
2022-08-12T09:19:57.317Z,0.80
2022-08-12T09:22:29.209Z,0.90
2022-08-12T09:24:59.786Z,1.00
2022-08-12T09:27:57.730Z,1.20
2022-08-12T09:30:17.899Z,1.20
2022-08-12T09:33:14.750Z,1.13
2022-08-12T09:36:04.239Z,1.20
2022-08-12T09:38:35.543Z,1.00
2022-08-12T09:42:33.621Z,1.10
2022-08-12T09:44:38.560Z,1.10
2022-08-12T09:46:58.007Z,1.03
2022-08-12T09:49:25.542Z,1.07
2022-08-12T09:51:55.323Z,1.30
2022-08-12T09:54:32.992Z,1.13
2022-08-12T09:58:45.289Z,1.10
2022-08-12T10:00:16.741Z,1.00
2022-08-12T10:02:57.265Z,1.10
2022-08-12T10:06:27.384Z,1.10
2022-08-12T10:08:14.710Z,1.23
2022-08-12T10:11:03.829Z,1.07
2022-08-12T10:13:44.742Z,1.27
2022-08-12T10:16:21.798Z,1.37
2022-08-12T10:18:52.728Z,1.03
2022-08-12T10:21:21.160Z,1.20
2022-08-12T10:23:56.926Z,1.20
2022-08-12T10:26:44.604Z,1.10
2022-08-12T10:30:03.290Z,1.10
2022-08-12T10:32:44.184Z,1.13
2022-08-12T10:35:08.234Z,1.10
2022-08-12T10:38:34.772Z,1.07
2022-08-12T10:40:28.575Z,1.00
2022-08-12T10:43:17.983Z,1.10
2022-08-12T10:45:49.606Z,1.20
2022-08-12T10:48:21.129Z,1.10
2022-08-12T10:51:02.097Z,1.33
2022-08-12T10:53:45.703Z,1.00
2022-08-12T10:56:14.505Z,1.10
2022-08-12T10:58:45.948Z,1.20
2022-08-12T11:01:49.715Z,1.00
2022-08-12T11:04:22.641Z,1.00
2022-08-12T11:07:07.181Z,1.07
2022-08-12T11:10:00.646Z,1.07
2022-08-12T11:12:55.019Z,1.10
2022-08-12T11:15:33.031Z,1.00
2022-08-12T11:18:11.810Z,1.30
2022-08-12T11:20:45.343Z,0.90
2022-08-12T11:23:24.643Z,1.00
2022-08-12T11:26:05.609Z,1.10
2022-08-12T11:28:36.940Z,1.20
2022-08-12T11:31:07.211Z,1.27
2022-08-12T11:34:06.867Z,1.20
2022-08-12T11:36:27.709Z,1.23
2022-08-12T11:38:57.611Z,1.17
2022-08-12T11:41:31.261Z,1.33
2022-08-12T11:44:00.051Z,1.23
2022-08-12T11:46:50.966Z,1.20
2022-08-12T11:49:26.853Z,0.97
2022-08-12T11:52:00.608Z,1.07
2022-08-12T11:54:29.612Z,1.10
2022-08-12T11:56:59.968Z,0.97
2022-08-12T12:02:02.131Z,1.10
2022-08-12T12:02:20.091Z,0.97
2022-08-12T12:04:52.093Z,1.07
2022-08-12T12:07:21.109Z,1.13
2022-08-12T12:09:51.863Z,0.97
2022-08-12T12:12:21.467Z,1.13
2022-08-12T12:14:55.058Z,1.00
2022-08-12T12:17:24.843Z,1.00
2022-08-12T12:19:53.048Z,1.33
2022-08-12T12:22:23.589Z,1.20
2022-08-12T12:24:54.701Z,1.10
2022-08-12T12:27:39.333Z,1.10
2022-08-12T12:30:19.920Z,1.20
2022-08-12T12:32:58.989Z,1.10
2022-08-12T12:36:18.905Z,1.03
2022-08-12T12:38:14.992Z,1.20
2022-08-12T12:40:44.018Z,1.20
2022-08-12T12:43:12.289Z,1.17
2022-08-12T12:45:44.528Z,1.33
2022-08-12T12:48:15.753Z,1.40
2022-08-12T12:50:51.233Z,1.20
2022-08-12T12:54:08.933Z,1.37
2022-08-12T12:56:15.585Z,1.43
2022-08-12T12:58:43.889Z,1.17
2022-08-12T13:01:26.599Z,1.17
2022-08-12T13:04:02.559Z,1.20
2022-08-12T13:06:31.717Z,1.17
2022-08-12T13:09:03.341Z,1.27
2022-08-12T13:11:40.651Z,1.50
2022-08-12T13:14:12.862Z,1.30
2022-08-12T13:16:56.424Z,1.30
2022-08-12T13:19:38.794Z,1.40
2022-08-12T13:22:19.546Z,1.20
2022-08-12T13:24:51.840Z,1.40
2022-08-12T13:27:20.896Z,1.10
2022-08-12T13:29:48.889Z,1.30
2022-08-12T13:32:30.945Z,1.20
2022-08-12T13:35:04.469Z,1.07
2022-08-12T13:37:55.231Z,1.30
2022-08-12T13:40:23.318Z,0.90
2022-08-12T13:42:57.617Z,1.23
2022-08-12T13:45:26.993Z,1.20
2022-08-12T13:47:57.587Z,1.30
2022-08-12T13:50:29.213Z,1.40
2022-08-12T13:52:56.646Z,1.20
2022-08-12T13:55:31.025Z,1.40
2022-08-12T13:57:59.846Z,1.13
2022-08-12T14:00:34.433Z,1.30
2022-08-12T14:03:06.532Z,1.10
2022-08-12T14:05:39.393Z,1.23
2022-08-12T14:08:07.805Z,1.10
2022-08-12T14:10:37.847Z,1.20
2022-08-12T14:13:10.350Z,1.10
2022-08-12T14:15:47.834Z,1.20
2022-08-12T14:18:15.966Z,1.23
2022-08-12T14:20:47.547Z,1.10
2022-08-12T14:24:07.977Z,1.00
2022-08-12T14:26:05.169Z,1.00
2022-08-12T14:28:34.457Z,1.10
2022-08-12T14:31:03.162Z,1.20
2022-08-12T14:33:44.505Z,1.10
2022-08-12T14:36:13.651Z,1.10
2022-08-12T14:38:42.185Z,1.13
2022-08-12T14:41:14.893Z,1.10
2022-08-12T14:43:59.033Z,1.10
2022-08-12T14:46:30.571Z,1.20
2022-08-12T14:48:58.059Z,1.00
2022-08-12T14:52:43.447Z,0.93
2022-08-12T14:57:20.075Z,1.20
2022-08-12T15:00:09.033Z,1.10
2022-08-12T15:02:38.127Z,1.13
2022-08-12T15:05:06.687Z,0.90
2022-08-12T15:07:51.235Z,0.87
2022-08-12T15:10:31.875Z,1.03
2022-08-12T15:13:01.263Z,1.00
2022-08-12T15:15:33.800Z,1.00
2022-08-12T15:18:03.392Z,0.83
2022-08-12T15:20:37.953Z,0.87
2022-08-12T15:23:17.619Z,1.10
2022-08-12T15:25:48.721Z,1.00
2022-08-12T15:28:21.176Z,0.90
2022-08-12T15:30:52.103Z,1.00
2022-08-12T15:33:21.160Z,0.77
2022-08-12T15:35:53.918Z,1.00
2022-08-12T15:38:25.299Z,0.90
2022-08-12T15:40:54.107Z,1.27
2022-08-12T15:43:51.486Z,1.10
2022-08-12T15:46:15.728Z,0.90
2022-08-12T15:48:47.087Z,0.90
2022-08-12T15:51:27.746Z,0.93
2022-08-12T15:54:33.129Z,0.90
2022-08-12T15:57:05.391Z,1.00
2022-08-12T16:00:00.070Z,0.80
2022-08-12T16:02:21.152Z,1.03
2022-08-12T16:04:50.442Z,1.70
2022-08-12T16:07:29.891Z,1.10
2022-08-12T16:10:05.426Z,0.93
2022-08-12T16:12:39.428Z,1.10
2022-08-12T16:15:08.362Z,1.00
2022-08-12T16:18:18.121Z,1.00
2022-08-12T16:20:33.082Z,0.90
2022-08-12T16:23:04.138Z,1.00
2022-08-12T16:26:02.643Z,1.20
2022-08-12T16:28:22.616Z,1.07
2022-08-12T16:30:56.061Z,1.00
2022-08-12T16:33:35.646Z,1.10
2022-08-12T16:36:04.527Z,1.00
2022-08-12T16:38:32.107Z,1.00
2022-08-12T16:41:01.119Z,0.93
2022-08-12T16:43:29.301Z,1.10
2022-08-12T16:46:05.195Z,1.07
2022-08-12T16:48:48.918Z,1.10
2022-08-12T16:51:17.747Z,0.90
2022-08-12T16:53:45.686Z,1.10
2022-08-12T16:56:15.650Z,1.10
2022-08-12T16:58:44.494Z,1.20
2022-08-12T17:01:14.527Z,1.10
2022-08-12T17:03:47.098Z,1.10
2022-08-12T17:06:22.287Z,1.10
2022-08-12T17:09:02.287Z,1.07
2022-08-12T17:11:32.102Z,1.10
2022-08-12T17:13:59.789Z,1.03
2022-08-12T17:16:29.992Z,1.20
2022-08-12T17:19:03.004Z,1.00
2022-08-12T17:21:41.722Z,1.07
2022-08-12T17:24:21.430Z,1.00
2022-08-12T17:26:53.963Z,1.10
2022-08-12T17:29:32.109Z,1.80
2022-08-12T17:32:11.131Z,1.20
2022-08-12T17:34:52.649Z,1.00
2022-08-12T17:37:20.061Z,1.30
2022-08-12T17:40:15.689Z,1.10
2022-08-12T17:42:38.412Z,1.10
2022-08-12T17:45:18.041Z,1.03
2022-08-12T17:48:01.295Z,1.10
2022-08-12T17:50:33.211Z,1.10
2022-08-12T17:53:03.162Z,1.00
2022-08-12T17:55:40.502Z,1.10
2022-08-12T17:58:17.258Z,1.23
2022-08-12T18:00:46.122Z,1.10
2022-08-12T18:04:05.616Z,1.10
2022-08-12T18:06:08.478Z,1.10
2022-08-12T18:08:36.333Z,0.90
2022-08-12T18:12:03.206Z,1.00
2022-08-12T18:14:10.417Z,1.03
2022-08-12T18:16:45.258Z,1.20
2022-08-12T18:19:13.941Z,0.97
2022-08-12T18:22:01.540Z,1.03
2022-08-12T18:24:29.591Z,0.90
2022-08-12T18:26:57.440Z,1.00
2022-08-12T18:29:42.952Z,0.87
2022-08-12T18:32:42.183Z,0.90
2022-08-12T18:35:10.844Z,1.07
2022-08-12T18:37:42.359Z,1.10
2022-08-12T18:40:28.589Z,0.97
2022-08-12T18:42:57.142Z,1.30
2022-08-12T18:45:31.621Z,1.00
2022-08-12T18:48:16.572Z,1.13
2022-08-12T18:50:49.811Z,1.30
2022-08-12T18:54:05.293Z,1.10
2022-08-12T18:56:06.619Z,1.00
2022-08-12T18:59:00.043Z,1.27
2022-08-12T19:02:19.277Z,1.10
2022-08-12T19:04:17.938Z,1.30
2022-08-12T19:06:46.837Z,1.37
2022-08-12T19:09:15.438Z,1.50
2022-08-12T19:12:00.823Z,1.10
2022-08-12T19:14:28.948Z,1.10
2022-08-12T19:17:01.029Z,1.20
2022-08-12T19:19:28.577Z,1.00
2022-08-12T19:22:09.670Z,1.20
2022-08-12T19:24:54.903Z,0.90
2022-08-12T19:27:22.535Z,1.30
2022-08-12T19:30:06.822Z,1.00
2022-08-12T19:32:38.335Z,1.10
2022-08-12T19:38:06.312Z,1.17
2022-08-12T19:40:37.194Z,1.17
2022-08-12T19:43:17.250Z,1.30
2022-08-12T19:45:50.429Z,1.30
2022-08-12T19:48:20.261Z,1.40
2022-08-12T19:50:50.349Z,1.20
2022-08-12T19:53:20.517Z,1.27
2022-08-12T19:55:51.761Z,1.30
2022-08-12T19:58:20.535Z,1.10
2022-08-12T20:00:56.294Z,1.20
2022-08-12T20:03:38.251Z,1.43
2022-08-12T20:06:14.163Z,1.20
2022-08-12T20:08:45.501Z,1.77
2022-08-12T20:12:14.725Z,1.40
2022-08-12T20:14:04.662Z,1.40
2022-08-12T20:16:57.727Z,1.40
2022-08-12T20:19:52.175Z,1.40
2022-08-12T20:22:14.759Z,1.57
2022-08-12T20:24:45.375Z,1.20
2022-08-12T20:27:53.661Z,1.20
2022-08-12T20:30:01.577Z,1.30
2022-08-12T20:32:37.606Z,1.37
2022-08-12T20:35:18.280Z,1.40
2022-08-12T20:38:06.571Z,1.50
2022-08-12T20:40:38.085Z,1.20
2022-08-12T20:43:06.669Z,1.80
2022-08-12T20:45:44.958Z,1.70
2022-08-12T20:48:18.335Z,1.60
2022-08-12T20:50:53.998Z,1.53
2022-08-12T20:53:27.662Z,1.50
2022-08-12T20:56:00.939Z,1.47
2022-08-12T20:58:29.345Z,1.40
2022-08-12T21:01:00.035Z,1.67
2022-08-12T21:03:52.838Z,1.50
2022-08-12T21:06:44.727Z,1.50
2022-08-12T21:09:13.137Z,1.67
2022-08-12T21:11:42.467Z,1.50
2022-08-12T21:14:13.429Z,1.87
2022-08-12T21:16:45.003Z,1.50
2022-08-12T21:19:22.551Z,1.83
2022-08-12T21:21:54.454Z,1.60
2022-08-12T21:24:31.749Z,1.57
2022-08-12T21:27:03.481Z,1.57
2022-08-12T21:29:31.756Z,1.87
2022-08-12T21:32:36.732Z,1.60
2022-08-12T21:34:56.808Z,1.47
2022-08-12T21:37:27.316Z,1.70
2022-08-12T21:39:56.390Z,1.60
2022-08-12T21:42:26.279Z,1.70
2022-08-12T21:45:50.911Z,1.57
2022-08-12T21:47:43.375Z,1.53
2022-08-12T21:50:11.043Z,1.63
2022-08-12T21:52:42.459Z,1.80
2022-08-12T21:55:18.034Z,1.80
2022-08-12T21:57:50.658Z,1.80
2022-08-12T22:00:21.953Z,1.77
2022-08-12T22:03:07.961Z,1.77
2022-08-12T22:05:53.181Z,1.57
2022-08-12T22:08:26.046Z,1.60
2022-08-12T22:10:56.281Z,1.70
2022-08-12T22:14:02.386Z,1.73
2022-08-12T22:16:12.027Z,1.83
2022-08-12T22:18:40.486Z,1.90
2022-08-12T22:21:09.032Z,1.70
2022-08-12T22:23:51.591Z,1.90
2022-08-12T22:26:29.098Z,1.37
2022-08-12T22:29:14.794Z,1.80
2022-08-12T22:31:45.793Z,1.67
2022-08-12T22:34:18.048Z,1.83
2022-08-12T22:36:47.263Z,1.53
2022-08-12T22:39:18.659Z,1.73
2022-08-12T22:42:03.993Z,1.90
2022-08-12T22:44:54.958Z,1.60
2022-08-12T22:47:49.737Z,1.70
2022-08-12T22:50:28.075Z,1.90
2022-08-12T22:53:15.151Z,1.80
2022-08-12T22:56:00.002Z,1.87
2022-08-12T22:58:33.588Z,1.70
2022-08-12T23:01:02.419Z,1.77
2022-08-12T23:03:48.422Z,2.00
2022-08-12T23:06:19.430Z,1.77
2022-08-12T23:08:47.004Z,2.00
2022-08-12T23:11:17.969Z,1.90
2022-08-12T23:13:54.917Z,1.90
2022-08-12T23:16:29.189Z,1.80
2022-08-12T23:19:00.018Z,2.10
2022-08-12T23:22:04.465Z,1.90
2022-08-12T23:24:17.173Z,1.97
2022-08-12T23:27:04.685Z,1.93
2022-08-12T23:29:43.404Z,1.90
2022-08-12T23:32:35.361Z,1.80
2022-08-12T23:35:04.724Z,1.90
2022-08-12T23:37:47.716Z,2.07
2022-08-12T23:40:22.398Z,1.83
2022-08-12T23:42:54.137Z,2.00
2022-08-12T23:45:30.739Z,2.07
2022-08-12T23:47:59.917Z,1.77
2022-08-12T23:50:34.153Z,2.00
2022-08-12T23:53:05.800Z,1.90
2022-08-12T23:55:35.934Z,1.97
2022-08-12T23:58:17.529Z,2.20
